Ceylon, Indiana
Current Conditions -  °F | °C
As of 9:54 PM on Tuesday 21 Oct 2014 (Local Time) from KFWA Reporting Station
Overcast Overcast  
Wind Chill: 42°   Ceiling: 3900
Heat Index: 47°   Visibility: 10mi
Dew Point: 37°   Wind: 10mph
Humidity: 68%   Direction: 10°N
Pressure: 30.22"   Gusts: NA
Location:  40.6087°N, 84.98°W
Report Text: KFWA 220154Z 01009KT 10SM OVC039 08/03 A3022 RMK AO2 SLP238 T00830028
Loading
Personal Weather Stations






























Interactive Weather Map
Tropical Storm Tracking
New forecast layout! Learn more

10-Day Weather Forecast

Advertisements
Track Severe Weather on mobile